createdAt,value
2023-05-05T00:01:18.983Z,10.40
2023-05-05T00:03:55.273Z,10.40
2023-05-05T00:06:32.323Z,10.40
2023-05-05T00:09:08.122Z,10.30
2023-05-05T00:11:56.188Z,10.30
2023-05-05T00:14:35.981Z,10.30
2023-05-05T00:17:13.191Z,10.20
2023-05-05T00:19:50.880Z,10.20
2023-05-05T00:22:31.136Z,10.20
2023-05-05T00:25:07.521Z,10.10
2023-05-05T00:27:51.677Z,10.10
2023-05-05T00:30:28.348Z,10.10
2023-05-05T00:33:05.668Z,10.00
2023-05-05T00:35:43.102Z,10.00
2023-05-05T00:38:24.392Z,10.10
2023-05-05T00:41:09.946Z,10.10
2023-05-05T00:43:51.987Z,10.10
2023-05-05T00:46:28.126Z,10.10
2023-05-05T00:49:05.202Z,10.10
2023-05-05T00:51:41.693Z,10.10
2023-05-05T00:54:17.399Z,10.10
2023-05-05T00:56:53.312Z,10.00
2023-05-05T00:59:32.538Z,10.00
2023-05-05T01:02:09.522Z,10.00
2023-05-05T01:04:45.386Z,9.90
2023-05-05T01:07:27.831Z,9.90
2023-05-05T01:10:18.760Z,9.90
2023-05-05T01:12:58.325Z,9.90
2023-05-05T01:15:38.274Z,9.80
2023-05-05T01:18:15.046Z,9.80
2023-05-05T01:20:54.720Z,9.80
2023-05-05T01:23:42.386Z,9.80
2023-05-05T01:26:49.602Z,9.80
2023-05-05T01:29:47.024Z,9.80
2023-05-05T01:32:31.411Z,9.70
2023-05-05T01:35:12.683Z,9.70
2023-05-05T01:37:51.456Z,9.80
2023-05-05T01:40:30.661Z,9.70
2023-05-05T01:43:07.640Z,9.70
2023-05-05T01:45:44.196Z,9.70
2023-05-05T01:48:22.710Z,9.70
2023-05-05T01:50:57.582Z,9.70
2023-05-05T01:53:34.995Z,9.60
2023-05-05T01:56:12.838Z,9.70
2023-05-05T01:58:48.753Z,9.60
2023-05-05T02:01:26.494Z,9.60
2023-05-05T02:04:10.105Z,9.70
2023-05-05T02:06:46.878Z,9.60
2023-05-05T02:09:23.306Z,9.60
2023-05-05T02:11:59.013Z,9.60
2023-05-05T02:14:35.020Z,9.60
2023-05-05T02:17:13.125Z,9.60
2023-05-05T02:19:54.439Z,9.50
2023-05-05T02:22:31.958Z,9.60
2023-05-05T02:25:09.686Z,9.50
2023-05-05T02:27:45.335Z,9.50
2023-05-05T02:30:24.508Z,9.50
2023-05-05T02:33:04.560Z,9.50
2023-05-05T02:35:45.165Z,9.50
2023-05-05T02:38:23.280Z,9.40
2023-05-05T02:41:03.572Z,9.40
2023-05-05T02:43:38.812Z,9.30
2023-05-05T02:46:19.046Z,9.30
2023-05-05T02:49:00.033Z,9.30
2023-05-05T02:51:41.526Z,9.30
2023-05-05T02:54:25.756Z,9.20
2023-05-05T02:57:04.795Z,9.20
2023-05-05T02:59:48.008Z,9.20
2023-05-05T03:02:31.062Z,9.10
2023-05-05T03:05:11.260Z,9.10
2023-05-05T03:07:53.261Z,9.10
2023-05-05T03:10:37.404Z,9.10
2023-05-05T03:13:13.688Z,9.10
2023-05-05T03:16:03.734Z,9.10
2023-05-05T03:18:39.255Z,9.10
2023-05-05T03:21:17.995Z,9.10
2023-05-05T03:23:54.666Z,9.00
2023-05-05T03:26:35.365Z,9.10
2023-05-05T03:29:13.199Z,9.00
2023-05-05T03:31:56.352Z,9.00
2023-05-05T03:34:33.513Z,9.00
2023-05-05T03:37:12.921Z,9.00
2023-05-05T03:39:53.066Z,9.00
2023-05-05T03:42:35.040Z,9.00
2023-05-05T03:45:12.863Z,9.00
2023-05-05T03:47:47.658Z,9.00
2023-05-05T03:50:25.911Z,8.90
2023-05-05T03:53:02.684Z,9.00
2023-05-05T03:55:40.122Z,9.00
2023-05-05T03:58:19.373Z,8.90
2023-05-05T04:00:55.771Z,8.90
2023-05-05T04:03:33.847Z,9.00
2023-05-05T04:06:11.962Z,8.90
2023-05-05T04:08:49.052Z,8.90
2023-05-05T04:11:30.550Z,8.90
2023-05-05T04:14:05.282Z,9.00
2023-05-05T04:16:49.289Z,9.00
2023-05-05T04:19:27.834Z,9.00
2023-05-05T04:22:06.396Z,8.90
2023-05-05T04:24:49.556Z,9.00
2023-05-05T04:27:30.264Z,9.00
2023-05-05T04:30:15.530Z,9.00
2023-05-05T04:32:56.592Z,9.00
2023-05-05T04:35:34.298Z,9.00
2023-05-05T04:38:11.372Z,9.10
2023-05-05T04:40:48.048Z,9.10
2023-05-05T04:43:35.395Z,9.20
2023-05-05T04:46:13.503Z,9.30
2023-05-05T04:48:56.136Z,9.60
2023-05-05T04:51:32.536Z,9.70
2023-05-05T04:54:10.025Z,10.10
2023-05-05T04:56:45.897Z,10.50
2023-05-05T04:59:23.904Z,10.90
2023-05-05T05:02:01.748Z,11.20
2023-05-05T05:04:43.595Z,11.60
2023-05-05T05:07:23.213Z,12.00
2023-05-05T05:10:00.499Z,12.30
2023-05-05T05:12:35.947Z,12.40
2023-05-05T05:15:14.652Z,12.60
2023-05-05T05:17:52.259Z,12.70
2023-05-05T05:20:33.342Z,12.90
2023-05-05T05:23:14.057Z,13.00
2023-05-05T05:25:55.231Z,13.10
2023-05-05T05:43:23.905Z,13.80
2023-05-05T06:05:40.349Z,14.10
2023-05-05T06:08:41.822Z,14.20
2023-05-05T06:12:04.061Z,14.50
2023-05-05T06:14:54.762Z,14.90
2023-05-05T06:17:31.315Z,15.40
2023-05-05T06:20:08.415Z,15.70
2023-05-05T06:22:44.127Z,15.90
2023-05-05T06:25:27.781Z,16.20
2023-05-05T06:28:39.900Z,16.50
2023-05-05T06:31:39.969Z,16.80
2023-05-05T06:34:28.633Z,17.20
2023-05-05T06:37:17.478Z,17.60
2023-05-05T06:40:34.224Z,17.90
2023-05-05T06:49:40.262Z,18.10
2023-05-05T06:52:26.573Z,18.20
2023-05-05T06:59:09.685Z,18.20
2023-05-05T07:01:47.701Z,18.20
2023-05-05T07:04:27.756Z,18.40
2023-05-05T07:07:11.980Z,18.60
2023-05-05T07:09:56.987Z,19.00
2023-05-05T07:12:35.838Z,19.30
2023-05-05T07:18:18.270Z,19.80
2023-05-05T07:20:58.049Z,20.00
2023-05-05T07:33:04.029Z,20.60
2023-05-05T07:35:55.949Z,20.70
2023-05-05T07:38:40.909Z,20.90
2023-05-05T07:41:35.386Z,21.10
2023-05-05T08:15:37.058Z,22.80
2023-05-05T08:18:28.576Z,22.80
2023-05-05T08:30:26.691Z,23.10
2023-05-05T08:33:30.458Z,23.30
2023-05-05T08:39:24.893Z,23.40
2023-05-05T08:58:13.093Z,23.70
2023-05-05T09:04:15.021Z,23.60
2023-05-05T09:07:04.437Z,23.80
2023-05-05T09:09:39.860Z,23.70
2023-05-05T09:12:18.890Z,23.80
2023-05-05T09:15:04.368Z,23.60
2023-05-05T09:17:40.893Z,23.60
2023-05-05T09:20:30.252Z,23.50
2023-05-05T09:23:13.764Z,23.50
2023-05-05T09:25:59.150Z,23.50
2023-05-05T09:34:49.361Z,23.40
2023-05-05T09:37:32.317Z,23.40
2023-05-05T09:40:10.759Z,23.30
2023-05-05T09:42:48.290Z,23.30
2023-05-05T09:45:32.145Z,23.40
2023-05-05T09:48:08.960Z,23.40
2023-05-05T09:50:50.095Z,23.40
2023-05-05T09:53:26.205Z,23.60
2023-05-05T09:56:09.394Z,23.60
2023-05-05T09:58:48.577Z,23.80
2023-05-05T10:01:28.513Z,24.00
2023-05-05T10:04:07.923Z,24.00
2023-05-05T10:06:53.250Z,23.90
2023-05-05T10:09:32.096Z,23.80
2023-05-05T10:12:09.661Z,23.80
2023-05-05T10:14:45.112Z,23.90
2023-05-05T10:17:24.748Z,24.10
2023-05-05T10:20:04.663Z,24.10
2023-05-05T10:22:43.598Z,24.10
2023-05-05T10:25:19.542Z,24.10
2023-05-05T10:27:57.661Z,24.00
2023-05-05T10:30:35.207Z,23.90
2023-05-05T10:33:30.764Z,23.80
2023-05-05T10:36:08.268Z,23.80
2023-05-05T10:38:48.975Z,23.70
2023-05-05T10:41:27.397Z,23.90
2023-05-05T10:44:04.560Z,23.90
2023-05-05T10:46:45.388Z,23.90
2023-05-05T10:49:28.020Z,23.70
2023-05-05T10:52:10.693Z,23.60
2023-05-05T10:54:53.818Z,23.60
2023-05-05T10:57:31.868Z,23.60
2023-05-05T11:00:09.559Z,23.80
2023-05-05T11:02:49.039Z,23.90
2023-05-05T11:05:24.728Z,24.00
2023-05-05T11:08:01.083Z,24.10
2023-05-05T11:10:51.124Z,24.10
2023-05-05T11:13:30.262Z,24.10
2023-05-05T11:16:09.152Z,24.00
2023-05-05T11:18:44.811Z,24.10
2023-05-05T11:21:19.875Z,24.20
2023-05-05T11:23:56.046Z,24.20
2023-05-05T11:26:56.351Z,24.20
2023-05-05T11:29:31.994Z,24.20
2023-05-05T11:32:15.997Z,24.10
2023-05-05T11:34:56.984Z,24.10
2023-05-05T11:37:33.069Z,24.10
2023-05-05T11:40:18.042Z,24.10
2023-05-05T11:43:07.895Z,24.10
2023-05-05T11:45:45.053Z,24.00
2023-05-05T11:48:30.457Z,24.00
2023-05-05T11:51:07.652Z,23.80
2023-05-05T11:53:49.397Z,23.80
2023-05-05T11:56:25.644Z,23.70
2023-05-05T11:59:13.577Z,23.80
2023-05-05T12:01:49.272Z,23.70
2023-05-05T12:04:24.660Z,23.50
2023-05-05T12:07:05.030Z,23.50
2023-05-05T12:09:42.896Z,23.50
2023-05-05T12:12:23.054Z,23.40
2023-05-05T12:15:01.498Z,23.50
2023-05-05T12:23:31.074Z,23.40
2023-05-05T12:26:09.730Z,23.20
2023-05-05T12:28:43.465Z,23.30
2023-05-05T12:31:41.423Z,23.20
2023-05-05T12:34:18.028Z,23.10
2023-05-05T12:37:01.888Z,23.00
2023-05-05T12:42:23.185Z,22.90
2023-05-05T12:48:22.597Z,22.80
2023-05-05T12:51:19.530Z,22.90
2023-05-05T12:54:07.408Z,23.00
2023-05-05T12:56:44.474Z,23.00
2023-05-05T12:59:33.532Z,23.00
2023-05-05T13:02:11.765Z,22.90
2023-05-05T13:04:59.822Z,22.90
2023-05-05T13:07:43.092Z,22.70
2023-05-05T13:10:25.995Z,22.70
2023-05-05T13:13:02.894Z,22.70
2023-05-05T13:15:43.145Z,22.70
2023-05-05T13:18:19.611Z,22.70
2023-05-05T13:20:56.223Z,22.60
2023-05-05T13:23:37.954Z,22.60
2023-05-05T13:26:14.203Z,22.70
2023-05-05T13:28:51.479Z,22.60
2023-05-05T13:31:29.623Z,22.60
2023-05-05T13:34:08.704Z,22.60
2023-05-05T13:36:42.862Z,22.60
2023-05-05T13:39:23.876Z,22.60
2023-05-05T13:42:02.780Z,22.60
2023-05-05T13:44:37.700Z,22.50
2023-05-05T13:47:16.901Z,22.50
2023-05-05T13:49:53.016Z,22.50
2023-05-05T13:52:34.297Z,22.50
2023-05-05T13:55:15.499Z,22.60
2023-05-05T13:57:55.358Z,22.60
2023-05-05T14:00:31.456Z,22.60
2023-05-05T14:03:11.461Z,22.60
2023-05-05T14:05:46.913Z,22.50
2023-05-05T14:08:22.780Z,22.50
2023-05-05T14:11:02.393Z,22.40
2023-05-05T14:13:38.500Z,22.40
2023-05-05T14:16:16.177Z,22.50
2023-05-05T14:18:54.384Z,22.40
2023-05-05T14:21:28.728Z,22.40
2023-05-05T14:24:07.533Z,22.40
2023-05-05T14:26:41.844Z,22.40
2023-05-05T14:29:22.535Z,22.40
2023-05-05T14:31:58.266Z,22.40
2023-05-05T14:34:37.373Z,22.40
2023-05-05T14:37:13.643Z,22.40
2023-05-05T14:39:50.065Z,22.40
2023-05-05T14:42:32.490Z,22.30
2023-05-05T14:45:13.152Z,22.30
2023-05-05T14:47:50.192Z,22.30
2023-05-05T14:50:27.768Z,22.30
2023-05-05T14:53:04.150Z,22.30
2023-05-05T14:55:42.443Z,22.20
2023-05-05T14:58:24.146Z,22.20
2023-05-05T15:01:03.250Z,22.20
2023-05-05T15:03:38.288Z,22.20
2023-05-05T15:06:13.748Z,22.20
2023-05-05T15:08:50.492Z,22.10
2023-05-05T15:11:26.940Z,22.00
2023-05-05T15:14:02.580Z,22.10
2023-05-05T15:16:39.937Z,22.10
2023-05-05T15:19:18.373Z,22.10
2023-05-05T15:21:56.619Z,22.10
2023-05-05T15:24:35.325Z,22.00
2023-05-05T15:27:14.646Z,22.00
2023-05-05T15:29:53.052Z,22.00
2023-05-05T15:32:33.578Z,21.90
2023-05-05T15:35:12.927Z,21.80
2023-05-05T15:37:48.633Z,21.70
2023-05-05T15:40:23.784Z,21.60
2023-05-05T15:43:03.932Z,21.60
2023-05-05T15:45:42.418Z,21.50
2023-05-05T15:48:21.829Z,21.50
2023-05-05T15:50:57.717Z,21.60
2023-05-05T15:53:46.219Z,21.50
2023-05-05T15:56:22.919Z,21.60
2023-05-05T15:59:00.900Z,21.60
2023-05-05T16:01:39.873Z,21.60
2023-05-05T16:04:23.396Z,21.60
2023-05-05T16:07:00.740Z,21.50
2023-05-05T16:09:38.651Z,21.50
2023-05-05T16:12:15.176Z,21.50
2023-05-05T16:14:53.557Z,21.50
2023-05-05T16:17:34.371Z,21.50
2023-05-05T16:20:16.936Z,21.40
2023-05-05T16:22:54.995Z,21.30
2023-05-05T16:25:31.133Z,21.30
2023-05-05T16:28:06.935Z,21.20
2023-05-05T16:30:44.849Z,21.20
2023-05-05T16:33:21.066Z,21.20
2023-05-05T16:35:59.855Z,21.10
2023-05-05T16:38:35.646Z,21.10
2023-05-05T16:41:12.736Z,21.00
2023-05-05T16:43:48.500Z,20.90
2023-05-05T16:46:25.901Z,20.90
2023-05-05T16:49:03.719Z,20.90
2023-05-05T16:51:43.221Z,20.80
2023-05-05T16:54:18.865Z,20.80
2023-05-05T16:57:00.357Z,20.80
2023-05-05T16:59:37.389Z,20.70
2023-05-05T17:02:16.424Z,20.70
2023-05-05T17:04:52.779Z,20.60
2023-05-05T17:07:35.803Z,20.50
2023-05-05T17:10:16.435Z,20.40
2023-05-05T17:12:52.426Z,20.30
2023-05-05T17:15:30.296Z,20.20
2023-05-05T17:18:08.037Z,20.20
2023-05-05T17:20:46.552Z,20.10
2023-05-05T17:23:26.043Z,20.10
2023-05-05T17:26:06.602Z,20.00
2023-05-05T17:28:44.053Z,20.00
2023-05-05T17:31:22.915Z,20.00
2023-05-05T17:33:59.213Z,19.90
2023-05-05T17:36:34.833Z,19.90
2023-05-05T17:39:15.380Z,19.90
2023-05-05T17:42:01.149Z,19.80
2023-05-05T17:44:41.405Z,19.70
2023-05-05T17:47:22.760Z,19.70
2023-05-05T17:49:57.588Z,19.60
2023-05-05T17:52:36.145Z,19.50
2023-05-05T17:55:16.811Z,19.50
2023-05-05T17:57:50.648Z,19.40
2023-05-05T18:00:26.941Z,19.30
2023-05-05T18:03:15.475Z,19.30
2023-05-05T18:05:54.718Z,19.20
2023-05-05T18:11:31.741Z,19.00
2023-05-05T18:14:07.583Z,19.00
2023-05-05T18:16:49.933Z,18.90
2023-05-05T18:19:26.889Z,18.90
2023-05-05T18:22:07.518Z,18.70
2023-05-05T18:24:44.640Z,18.60
2023-05-05T18:27:39.805Z,18.40
2023-05-05T18:30:20.082Z,18.20
2023-05-05T18:32:59.390Z,18.10
2023-05-05T18:35:37.860Z,18.00
2023-05-05T18:38:16.031Z,17.80
2023-05-05T18:40:50.700Z,17.70
2023-05-05T18:43:32.844Z,17.70
2023-05-05T18:46:40.844Z,17.50
2023-05-05T18:49:18.037Z,17.50
2023-05-05T18:51:54.604Z,17.40
2023-05-05T18:54:32.099Z,17.30
2023-05-05T18:57:16.829Z,17.20
2023-05-05T18:59:59.212Z,17.10
2023-05-05T19:02:39.712Z,17.10
2023-05-05T19:05:15.932Z,17.00
2023-05-05T19:07:55.093Z,16.90
2023-05-05T19:10:31.671Z,16.90
2023-05-05T19:13:09.243Z,16.80
2023-05-05T19:15:47.392Z,16.70
2023-05-05T19:18:24.360Z,16.60
2023-05-05T19:21:02.551Z,16.50
2023-05-05T19:23:41.430Z,16.50
2023-05-05T19:26:23.332Z,16.40
2023-05-05T19:29:00.833Z,16.40
2023-05-05T19:31:40.954Z,16.30
2023-05-05T19:34:19.038Z,16.30
2023-05-05T19:36:54.522Z,16.20
2023-05-05T19:39:32.660Z,16.10
2023-05-05T19:42:11.418Z,16.00
2023-05-05T19:44:50.371Z,16.00
2023-05-05T19:47:34.751Z,15.90
2023-05-05T19:50:15.888Z,15.80
2023-05-05T19:52:53.732Z,15.70
2023-05-05T19:55:30.608Z,15.60
2023-05-05T19:58:10.727Z,15.60
2023-05-05T20:00:48.385Z,15.50
2023-05-05T20:03:28.192Z,15.40
2023-05-05T20:06:05.160Z,15.40
2023-05-05T20:08:42.364Z,15.30
2023-05-05T20:11:21.625Z,15.30
2023-05-05T20:14:02.560Z,15.20
2023-05-05T20:16:38.739Z,15.20
2023-05-05T20:19:21.368Z,15.10
2023-05-05T20:21:59.005Z,15.10
2023-05-05T20:24:37.349Z,15.00
2023-05-05T20:27:16.658Z,15.00
2023-05-05T20:29:58.453Z,14.90
2023-05-05T20:32:40.994Z,14.80
2023-05-05T20:35:28.295Z,14.70
2023-05-05T20:40:41.380Z,14.60
2023-05-05T20:43:17.018Z,14.60
2023-05-05T20:45:53.398Z,14.50
2023-05-05T20:48:31.854Z,14.50
2023-05-05T20:51:12.459Z,14.40
2023-05-05T20:53:47.464Z,14.40
2023-05-05T20:56:25.037Z,14.30
2023-05-05T20:59:01.733Z,14.30
2023-05-05T21:01:44.973Z,14.20
2023-05-05T21:04:20.838Z,14.20
2023-05-05T21:07:03.234Z,14.10
2023-05-05T21:09:39.099Z,14.10
2023-05-05T21:12:16.752Z,14.00
2023-05-05T21:14:58.811Z,14.00
2023-05-05T21:17:34.321Z,13.90
2023-05-05T21:20:14.858Z,13.90
2023-05-05T21:22:55.829Z,13.80
2023-05-05T21:25:32.884Z,13.80
2023-05-05T21:28:11.483Z,13.80
2023-05-05T21:31:10.190Z,13.70
2023-05-05T21:33:49.632Z,13.70
2023-05-05T21:36:27.989Z,13.70
2023-05-05T21:39:10.811Z,13.60
2023-05-05T21:41:47.231Z,13.50
2023-05-05T21:44:28.805Z,13.50
2023-05-05T21:47:05.737Z,13.50
2023-05-05T21:49:41.925Z,13.40
2023-05-05T21:52:18.558Z,13.40
2023-05-05T21:54:57.183Z,13.30
2023-05-05T21:57:37.114Z,13.30
2023-05-05T22:00:17.227Z,13.30
2023-05-05T22:02:54.320Z,13.30
2023-05-05T22:05:34.744Z,13.20
2023-05-05T22:08:11.491Z,13.20
2023-05-05T22:10:53.455Z,13.20
2023-05-05T22:13:31.592Z,13.00
2023-05-05T22:16:09.262Z,13.10
2023-05-05T22:18:44.771Z,13.10
2023-05-05T22:21:23.391Z,13.00
2023-05-05T22:23:58.888Z,13.00
2023-05-05T22:26:43.540Z,13.00
2023-05-05T22:29:18.987Z,12.90
2023-05-05T22:31:54.516Z,12.80
2023-05-05T22:34:31.900Z,12.80
2023-05-05T22:37:07.933Z,12.80
2023-05-05T22:39:43.752Z,12.80
2023-05-05T22:42:22.306Z,12.70
2023-05-05T22:44:58.532Z,12.70
2023-05-05T22:47:34.478Z,12.70
2023-05-05T22:50:11.016Z,12.60
2023-05-05T22:52:49.521Z,12.60
2023-05-05T22:55:23.759Z,12.60
2023-05-05T22:58:05.729Z,12.50
2023-05-05T23:00:41.484Z,12.50
2023-05-05T23:03:17.462Z,12.50
2023-05-05T23:05:52.655Z,12.50
2023-05-05T23:08:28.436Z,12.50
2023-05-05T23:11:05.547Z,12.50
2023-05-05T23:13:44.962Z,12.40
2023-05-05T23:16:19.970Z,12.40
2023-05-05T23:18:55.320Z,12.30
2023-05-05T23:21:45.297Z,12.30
2023-05-05T23:24:27.631Z,12.30
2023-05-05T23:27:05.202Z,12.20
2023-05-05T23:29:52.734Z,12.20
2023-05-05T23:32:28.588Z,12.20
2023-05-05T23:35:04.161Z,12.20
2023-05-05T23:37:39.488Z,12.20
2023-05-05T23:40:15.875Z,12.20
2023-05-05T23:42:59.181Z,12.20
2023-05-05T23:45:38.934Z,12.20
2023-05-05T23:48:15.273Z,12.10
2023-05-05T23:50:56.210Z,12.10
2023-05-05T23:53:33.707Z,12.10
2023-05-05T23:56:13.367Z,12.10
2023-05-05T23:58:48.471Z,12.00
